Time;durP1;ratioP1;P1;durP2;ratioP2;P2;SDS_P1;SDS_P2;PMS_P1;PMS_P2;Temp;Humidity;BMP_temperature;BMP_pressure;BME280_temperature;BME280_humidity;BME280_pressure;Samples;Min_cycle;Max_cycle;Signal;HPM_P1;HPM_P2
2022/10/22 00:10:37;;;;;;;;;;;;;;;23.48;53.39;97355.31;5054054;28;19915;-34
2022/10/22 00:13:03;;;;;;;;;;;;;;;23.50;53.23;97354.81;5055173;28;19909;-35
2022/10/22 00:15:29;;;;;;;;;;;;;;;23.45;53.37;97361.81;5054996;28;19908;-35
2022/10/22 00:17:54;;;;;;;;;;;;;;;23.46;53.46;97368.88;5055081;28;20361;-34
2022/10/22 02:01:04;;;;;;;;;;;;;;;23.12;54.11;97342.16;4773718;28;20004;-35
2022/10/22 02:03:38;;;;;;;;;;;;;;;23.05;54.47;97321.19;5057612;28;20349;-34
2022/10/22 02:06:08;;;;;;;;;;;;;;;23.10;54.20;97320.50;5057705;28;19912;-34
2022/10/22 02:08:35;;;;;;;;;;;;;;;23.06;54.12;97317.19;5057376;28;19920;-34
2022/10/22 02:11:01;;;;;;;;;;;;;;;23.14;53.82;97329.31;5057237;28;19913;-35
2022/10/22 02:13:29;;;;;;;;;;;;;;;23.12;53.97;97326.28;5057419;28;19915;-34
2022/10/22 02:15:55;;;;;;;;;;;;;;;23.11;53.92;97333.09;5057549;28;20002;-36
2022/10/22 02:18:22;;;;;;;;;;;;;;;23.15;53.80;97335.63;5055859;28;20003;-35
2022/10/22 02:20:48;;;;;;;;;;;;;;;23.12;54.01;97336.63;5057420;28;19908;-34
2022/10/22 02:23:13;;;;;;;;;;;;;;;23.09;53.87;97318.97;5057244;28;19995;-35
2022/10/22 02:25:40;;;;;;;;;;;;;;;23.09;54.42;97320.97;5055773;28;20014;-34
2022/10/22 02:28:15;;;;;;;;;;;;;;;23.08;54.27;97317.47;5055788;28;20420;-34
2022/10/22 02:30:43;;;;;;;;;;;;;;;23.04;54.19;97322.44;5057299;28;19908;-34
2022/10/22 02:33:14;;;;;;;;;;;;;;;23.13;54.25;97321.50;5057231;28;19987;-35
2022/10/22 02:35:40;;;;;;;;;;;;;;;23.22;53.68;97316.59;5056892;28;19913;-34
2022/10/22 02:38:08;;;;;;;;;;;;;;;23.10;53.95;97317.72;5057120;28;19912;-34
2022/10/22 02:40:34;;;;;;;;;;;;;;;23.01;54.52;97320.63;5056900;28;19909;-34
2022/10/22 02:43:02;;;;;;;;;;;;;;;23.00;54.63;97319.13;5057008;28;19916;-34
2022/10/22 02:45:28;;;;;;;;;;;;;;;23.14;54.03;97329.31;5056709;28;20419;-34
2022/10/22 02:47:53;;;;;;;;;;;;;;;23.00;54.24;97310.06;5056908;28;19912;-34
2022/10/22 02:50:19;;;;;;;;;;;;;;;23.04;54.26;97307.84;5057166;28;19962;-35
2022/10/22 02:52:44;;;;;;;;;;;;;;;23.01;54.49;97304.03;5056935;28;19955;-35
2022/10/22 02:55:10;;;;;;;;;;;;;;;23.08;54.35;97303.63;5056618;28;19915;-35
2022/10/22 02:57:35;;;;;;;;;;;;;;;23.18;53.98;97304.22;5057095;28;19983;-35
2022/10/22 03:00:00;;;;;;;;;;;;;;;23.07;54.18;97302.09;5056143;28;20394;-34
2022/10/22 03:02:26;;;;;;;;;;;;;;;23.12;53.82;97303.41;5056108;28;19919;-34
2022/10/22 03:04:51;;;;;;;;;;;;;;;23.10;54.06;97303.91;5056311;28;19908;-35
2022/10/22 03:07:16;;;;;;;;;;;;;;;23.12;53.97;97309.69;5056456;28;19919;-34
2022/10/22 03:09:42;;;;;;;;;;;;;;;23.23;53.48;97311.81;5056317;28;19915;-34
2022/10/22 03:12:07;;;;;;;;;;;;;;;23.20;53.22;97316.31;5054834;28;19991;-35
2022/10/22 03:14:33;;;;;;;;;;;;;;;23.20;53.46;97315.56;5056200;28;19909;-35
2022/10/22 03:16:58;;;;;;;;;;;;;;;23.11;53.81;97312.97;5056208;28;19944;-35
2022/10/22 03:19:23;;;;;;;;;;;;;;;23.18;53.50;97309.75;5056671;28;19913;-34
2022/10/22 03:21:51;;;;;;;;;;;;;;;23.09;53.64;97316.22;5056541;28;19915;-35
2022/10/22 03:24:24;;;;;;;;;;;;;;;23.22;53.38;97311.06;5056185;28;20322;-34
2022/10/22 03:26:51;;;;;;;;;;;;;;;23.17;53.28;97311.75;5055936;28;19913;-34
2022/10/22 03:29:16;;;;;;;;;;;;;;;23.19;53.22;97309.25;5055970;28;19970;-34
2022/10/22 03:31:41;;;;;;;;;;;;;;;23.02;53.90;97319.38;5056048;28;19914;-34
2022/10/22 03:34:07;;;;;;;;;;;;;;;23.19;53.37;97328.63;5055992;28;19909;-34
2022/10/22 03:36:32;;;;;;;;;;;;;;;23.22;53.27;97332.44;5054490;28;20334;-34
2022/10/22 03:39:06;;;;;;;;;;;;;;;23.28;52.79;97324.91;5055733;28;19909;-34
2022/10/22 03:41:31;;;;;;;;;;;;;;;23.24;53.01;97322.38;5054360;28;20338;-34
2022/10/22 03:43:59;;;;;;;;;;;;;;;23.22;53.18;97324.13;5056009;28;20007;-34
2022/10/22 03:46:24;;;;;;;;;;;;;;;23.14;53.24;97329.31;5055508;28;19913;-34
2022/10/22 03:48:50;;;;;;;;;;;;;;;23.15;53.26;97319.78;5055669;28;19908;-34
2022/10/22 03:51:15;;;;;;;;;;;;;;;23.21;53.13;97328.13;5056049;28;19909;-35
2022/10/22 03:53:40;;;;;;;;;;;;;;;23.06;53.62;97319.19;5055327;28;19996;-35
2022/10/22 03:56:15;;;;;;;;;;;;;;;23.15;53.58;97324.53;5055160;28;20007;-35
2022/10/22 03:58:40;;;;;;;;;;;;;;;23.03;53.94;97325.69;5055239;28;19931;-35
2022/10/22 04:01:07;;;;;;;;;;;;;;;23.04;54.12;97327.97;5055232;28;19913;-34
2022/10/22 04:03:32;;;;;;;;;;;;;;;23.00;53.99;97338.47;5055238;28;19965;-35
2022/10/22 04:06:02;;;;;;;;;;;;;;;23.05;54.29;97340.56;5055276;28;19913;-34
2022/10/22 04:08:27;;;;;;;;;;;;;;;23.07;53.78;97346.38;5055200;28;20011;-35
2022/10/22 04:10:52;;;;;;;;;;;;;;;23.10;54.01;97336.34;5055220;28;19963;-34
2022/10/22 04:13:19;;;;;;;;;;;;;;;23.04;53.90;97330.75;5054434;28;19915;-35
2022/10/22 04:15:45;;;;;;;;;;;;;;;23.02;53.98;97332.47;5055230;28;19967;-34
2022/10/22 04:18:11;;;;;;;;;;;;;;;23.01;54.18;97330.94;5054992;28;19961;-34
2022/10/22 04:20:36;;;;;;;;;;;;;;;23.10;53.72;97334.34;5054997;28;19909;-34
2022/10/22 04:23:02;;;;;;;;;;;;;;;23.08;53.73;97339.59;5054876;28;19909;-34
2022/10/22 04:25:27;;;;;;;;;;;;;;;23.05;53.82;97328.72;5055053;28;20422;-36
2022/10/22 04:27:52;;;;;;;;;;;;;;;22.92;54.38;97323.56;5053852;28;19909;-35
2022/10/22 04:30:17;;;;;;;;;;;;;;;22.99;54.21;97336.22;5054787;28;19947;-34
2022/10/22 04:32:43;;;;;;;;;;;;;;;22.97;54.09;97333.94;5054585;28;20356;-35
2022/10/22 04:35:08;;;;;;;;;;;;;;;22.91;54.47;97330.34;5054742;28;19912;-34
2022/10/22 04:37:34;;;;;;;;;;;;;;;23.04;54.07;97336.28;5054980;28;20277;-35
2022/10/22 04:39:59;;;;;;;;;;;;;;;23.02;53.84;97338.75;5054574;28;19954;-34
2022/10/22 04:42:24;;;;;;;;;;;;;;;23.06;53.67;97338.56;5054770;28;20429;-34
2022/10/22 04:44:50;;;;;;;;;;;;;;;23.12;53.91;97342.16;5054379;28;19913;-35
2022/10/22 04:47:15;;;;;;;;;;;;;;;23.13;53.80;97349.94;5054399;28;19915;-35
2022/10/22 04:49:49;;;;;;;;;;;;;;;23.10;53.56;97345.41;5054096;28;19959;-34
2022/10/22 04:52:15;;;;;;;;;;;;;;;23.06;54.02;97349.63;5054142;28;19908;-34
2022/10/22 04:54:40;;;;;;;;;;;;;;;23.08;53.64;97353.41;5054251;28;19996;-35
2022/10/22 04:57:05;;;;;;;;;;;;;;;23.15;53.57;97358.50;5054244;28;19940;-34
2022/10/22 04:59:31;;;;;;;;;;;;;;;23.11;53.98;97358.00;5054114;28;19958;-33
2022/10/22 05:01:56;;;;;;;;;;;;;;;23.09;53.97;97354.19;5054361;28;20382;-34
2022/10/22 05:04:21;;;;;;;;;;;;;;;23.31;53.30;97348.88;5052700;28;19912;-35
2022/10/22 05:06:47;;;;;;;;;;;;;;;23.15;53.76;97346.69;5054286;28;19916;-34
2022/10/22 05:09:13;;;;;;;;;;;;;;;23.12;54.01;97351.19;5054348;28;20000;-34
2022/10/22 05:11:40;;;;;;;;;;;;;;;23.11;53.94;97346.16;5052815;28;19915;-34
2022/10/22 05:14:06;;;;;;;;;;;;;;;23.16;53.70;97346.19;5054137;28;20379;-34
2022/10/22 05:16:32;;;;;;;;;;;;;;;23.18;53.77;97346.47;5054091;28;19971;-35
2022/10/22 05:18:59;;;;;;;;;;;;;;;23.21;53.47;97350.28;5052630;28;19909;-34
2022/10/22 05:21:24;;;;;;;;;;;;;;;23.21;53.38;97353.03;5053854;28;19915;-35
2022/10/22 05:23:50;;;;;;;;;;;;;;;23.19;53.18;97355.53;5053714;28;19912;-35
2022/10/22 05:26:16;;;;;;;;;;;;;;;23.26;53.38;97352.31;5053589;28;19908;-36
2022/10/22 05:28:42;;;;;;;;;;;;;;;23.13;53.60;97361.00;5053852;28;20380;-35
2022/10/22 05:31:09;;;;;;;;;;;;;;;23.18;53.52;97357.53;5053086;28;19948;-34
2022/10/22 05:33:34;;;;;;;;;;;;;;;23.19;53.53;97352.78;5052793;28;19912;-35
2022/10/22 05:36:01;;;;;;;;;;;;;;;23.17;53.86;97361.56;5053888;28;19913;-35
2022/10/22 05:38:26;;;;;;;;;;;;;;;23.16;53.72;97340.66;5053763;28;19909;-35
2022/10/22 05:41:02;;;;;;;;;;;;;;;23.05;54.28;97343.31;5054027;28;19961;-34
2022/10/22 05:43:28;;;;;;;;;;;;;;;23.17;53.79;97342.19;5053502;28;19913;-35
2022/10/22 05:45:53;;;;;;;;;;;;;;;23.02;54.47;97341.53;5053571;28;19927;-34
2022/10/22 05:48:19;;;;;;;;;;;;;;;23.03;54.90;97329.22;5053578;28;19978;-35
2022/10/22 05:50:49;;;;;;;;;;;;;;;23.07;54.57;97335.31;5052348;28;19913;-34
2022/10/22 05:53:14;;;;;;;;;;;;;;;23.09;54.80;97341.09;5053479;28;20369;-34
2022/10/22 05:55:40;;;;;;;;;;;;;;;23.10;54.40;97339.88;5053705;28;19915;-35
2022/10/22 05:58:05;;;;;;;;;;;;;;;23.09;54.59;97332.81;5053668;28;19916;-34
2022/10/22 06:00:33;;;;;;;;;;;;;;;22.99;54.77;97334.22;5053577;28;19959;-34
2022/10/22 06:02:58;;;;;;;;;;;;;;;22.94;55.01;97332.16;5053346;28;19909;-34
2022/10/22 06:05:24;;;;;;;;;;;;;;;22.90;55.46;97326.06;5053574;28;19912;-34
2022/10/22 06:07:49;;;;;;;;;;;;;;;22.91;55.70;97333.09;5053517;28;20019;-34
2022/10/22 06:10:17;;;;;;;;;;;;;;;22.89;55.51;97347.41;5053854;28;19909;-35
2022/10/22 06:12:42;;;;;;;;;;;;;;;23.01;55.18;97344.78;5053367;28;19915;-34
2022/10/22 06:15:11;;;;;;;;;;;;;;;23.03;55.18;97359.66;5053334;28;19909;-35
2022/10/22 06:17:36;;;;;;;;;;;;;;;23.13;54.83;97360.25;5053449;28;20337;-34
2022/10/22 06:20:03;;;;;;;;;;;;;;;23.07;54.71;97362.22;5053232;28;19915;-34
2022/10/22 06:22:28;;;;;;;;;;;;;;;23.11;54.70;97362.75;5053984;28;19909;-34
2022/10/22 06:24:53;;;;;;;;;;;;;;;23.03;55.17;97367.19;5053441;28;19923;-36
2022/10/22 06:27:19;;;;;;;;;;;;;;;23.08;54.74;97383.84;5053377;28;20399;-34
2022/10/22 06:29:44;;;;;;;;;;;;;;;23.04;54.85;97375.00;5053682;28;20305;-34
2022/10/22 06:32:09;;;;;;;;;;;;;;;23.01;54.90;97378.72;5053316;28;19909;-35
2022/10/22 06:34:35;;;;;;;;;;;;;;;22.91;55.55;97377.38;5052034;28;19915;-35
2022/10/22 06:37:00;;;;;;;;;;;;;;;22.93;55.28;97385.94;5054573;28;20381;-34
2022/10/22 06:39:25;;;;;;;;;;;;;;;23.00;55.38;97388.28;5056696;28;19963;-34
2022/10/22 07:30:38;;;;;;;;;;;;;;;22.83;56.82;97431.59;4127653;28;21790;-34
2022/10/22 07:54:29;;;;;;;;;;;;;;;19.93;69.55;97468.25;5053993;28;19915;-32
2022/10/22 07:56:56;;;;;;;;;;;;;;;21.35;63.85;97469.66;5054993;28;19920;-36
2022/10/22 07:59:27;;;;;;;;;;;;;;;21.78;61.67;97481.19;5054297;28;19909;-35
2022/10/22 08:01:53;;;;;;;;;;;;;;;22.07;60.90;97472.19;5055666;28;19987;-35
2022/10/22 08:04:18;;;;;;;;;;;;;;;22.06;60.52;97482.47;5055433;28;20438;-35
2022/10/22 08:06:44;;;;;;;;;;;;;;;21.85;61.49;97473.31;5055248;28;19916;-36
2022/10/22 08:09:09;;;;;;;;;;;;;;;22.27;60.01;97477.75;5055422;28;19931;-35
2022/10/22 08:11:37;;;;;;;;;;;;;;;22.02;61.02;97483.88;5055350;28;19947;-35
2022/10/22 08:14:02;;;;;;;;;;;;;;;22.21;60.21;97472.16;5055465;28;20356;-35
2022/10/22 08:16:28;;;;;;;;;;;;;;;22.39;59.21;97476.69;5053199;28;20011;-35
2022/10/22 08:40:22;;;;;;;;;;;;;;;22.17;60.24;97490.16;4915918;28;20430;-35
2022/10/22 08:43:06;;;;;;;;;;;;;;;22.12;60.63;97482.56;5054531;28;19913;-35
2022/10/22 08:45:35;;;;;;;;;;;;;;;22.37;59.60;97481.97;5054536;28;19913;-35
2022/10/22 08:48:19;;;;;;;;;;;;;;;22.35;59.51;97478.91;5053193;28;19927;-36
2022/10/22 08:50:46;;;;;;;;;;;;;;;21.81;62.03;97483.00;5054715;28;19913;-35
2022/10/22 08:53:16;;;;;;;;;;;;;;;22.14;60.96;97491.13;5054313;28;19908;-35
2022/10/22 08:55:42;;;;;;;;;;;;;;;22.26;60.36;97512.16;5054930;28;19974;-37
2022/10/22 08:58:16;;;;;;;;;;;;;;;22.11;60.89;97500.38;5053062;28;20351;-35
2022/10/22 09:01:05;;;;;;;;;;;;;;;22.17;60.62;97504.00;5052507;28;20319;-36
2022/10/22 09:03:50;;;;;;;;;;;;;;;22.53;59.44;97508.31;5053701;28;19935;-35
2022/10/22 09:06:21;;;;;;;;;;;;;;;22.54;59.24;97527.19;5053099;28;19912;-35
2022/10/22 09:08:47;;;;;;;;;;;;;;;22.52;59.09;97521.38;5054189;28;19913;-36
2022/10/22 09:11:16;;;;;;;;;;;;;;;22.61;59.09;97514.22;5054003;28;19964;-35
2022/10/22 09:13:43;;;;;;;;;;;;;;;22.51;59.52;97517.09;5054250;28;19916;-35
2022/10/22 09:16:17;;;;;;;;;;;;;;;22.73;58.43;97521.44;5053899;28;20293;-36
2022/10/22 09:19:21;;;;;;;;;;;;;;;22.51;59.20;97525.38;5053913;28;19987;-35
2022/10/22 09:22:05;;;;;;;;;;;;;;;22.77;58.54;97513.72;5051999;28;19962;-35
2022/10/22 09:24:33;;;;;;;;;;;;;;;22.60;58.78;97519.00;5051803;28;19912;-35
2022/10/22 09:42:16;;;;;;;;;;;;;;;22.54;59.36;97515.38;4321412;28;19924;-36
2022/10/22 10:42:53;;;;;;;;;;;;;;;21.86;61.04;97494.16;4882601;28;21777;-33
2022/10/22 10:45:27;;;;;;;;;;;;;;;22.15;60.36;97485.13;5075561;28;19916;-36
2022/10/22 10:48:11;;;;;;;;;;;;;;;22.40;59.38;97489.28;5075768;28;19912;-36
2022/10/22 10:50:52;;;;;;;;;;;;;;;22.00;60.78;97503.72;5076868;28;19908;-36
2022/10/22 10:53:23;;;;;;;;;;;;;;;22.13;60.19;97489.63;5076811;28;19939;-35
2022/10/22 10:56:09;;;;;;;;;;;;;;;22.34;59.47;97480.16;5076610;28;19912;-35
2022/10/22 10:58:47;;;;;;;;;;;;;;;21.17;64.14;97487.06;5075208;28;19912;-32
2022/10/22 11:01:25;;;;;;;;;;;;;;;21.59;62.93;97486.16;5076658;28;19954;-32
2022/10/22 11:03:57;;;;;;;;;;;;;;;21.81;62.40;97483.78;5076381;28;19916;-32
2022/10/22 11:06:24;;;;;;;;;;;;;;;22.55;60.05;97480.97;5076796;28;20370;-37
2022/10/22 11:09:02;;;;;;;;;;;;;;;23.49;57.10;97480.66;5076475;28;19915;-37
2022/10/22 11:11:31;;;;;;;;;;;;;;;23.78;55.91;97480.47;5076256;28;20007;-36
2022/10/22 12:14:58;;;;;;;;;;;;;;;24.45;53.06;97441.47;4986606;28;20391;-36
2022/10/22 13:48:52;;;;;;;;;;;;;;;24.06;54.51;97394.06;5026550;28;19962;-35
2022/10/22 13:51:22;;;;;;;;;;;;;;;24.23;53.72;97397.75;5057961;28;19935;-35
2022/10/22 13:53:49;;;;;;;;;;;;;;;24.29;53.64;97413.16;5058108;28;19909;-35
2022/10/22 13:56:15;;;;;;;;;;;;;;;24.22;53.73;97412.81;5056747;28;20419;-35
2022/10/22 13:58:42;;;;;;;;;;;;;;;24.27;53.68;97414.88;5058197;28;20011;-35
2022/10/22 14:01:21;;;;;;;;;;;;;;;24.36;53.45;97405.63;5058217;28;19912;-36
2022/10/22 14:03:48;;;;;;;;;;;;;;;24.20;53.97;97426.41;5056101;28;20018;-36
2022/10/22 14:06:14;;;;;;;;;;;;;;;24.18;54.09;97412.28;5058046;28;19935;-36
2022/10/22 14:08:40;;;;;;;;;;;;;;;24.18;53.93;97413.03;5077550;28;19974;-36
2022/10/22 14:11:05;;;;;;;;;;;;;;;24.16;54.00;97398.91;5078125;28;19912;-36
2022/10/22 14:13:31;;;;;;;;;;;;;;;24.21;53.86;97405.75;5078048;28;20299;-35
2022/10/22 14:15:56;;;;;;;;;;;;;;;23.85;55.04;97407.25;5077908;28;19915;-36
2022/10/22 14:18:25;;;;;;;;;;;;;;;23.63;55.99;97419.66;5077566;28;19920;-35
2022/10/22 14:20:55;;;;;;;;;;;;;;;23.79;55.20;97401.66;5078285;28;19991;-35
2022/10/22 14:23:22;;;;;;;;;;;;;;;23.54;55.59;97421.84;5077902;28;19912;-36
2022/10/22 14:25:49;;;;;;;;;;;;;;;23.82;55.03;97411.78;5078049;28;19908;-35
2022/10/22 14:28:16;;;;;;;;;;;;;;;23.73;55.46;97414.72;5077579;28;20428;-35
2022/10/22 14:30:41;;;;;;;;;;;;;;;24.14;54.04;97398.66;5077926;28;19918;-35
2022/10/22 14:33:16;;;;;;;;;;;;;;;24.17;53.82;97396.91;5077660;28;19912;-35
2022/10/22 14:35:42;;;;;;;;;;;;;;;24.25;53.81;97393.19;5077704;28;19908;-35
2022/10/22 14:38:07;;;;;;;;;;;;;;;24.21;53.77;97405.75;5077884;28;19919;-35
2022/10/22 14:40:33;;;;;;;;;;;;;;;24.19;53.98;97399.94;5077578;28;20011;-35
2022/10/22 14:42:58;;;;;;;;;;;;;;;24.32;53.40;97403.84;5077721;28;19913;-35
2022/10/22 14:45:25;;;;;;;;;;;;;;;23.80;54.86;97397.66;5076357;28;19944;-36
2022/10/22 14:47:51;;;;;;;;;;;;;;;23.42;56.22;97398.03;5077500;28;19999;-35
2022/10/22 14:50:17;;;;;;;;;;;;;;;23.80;54.88;97405.19;5077816;28;19948;-35
2022/10/22 14:52:43;;;;;;;;;;;;;;;23.85;54.69;97396.94;5077296;28;20307;-35
2022/10/22 14:55:09;;;;;;;;;;;;;;;24.06;54.04;97416.22;5077577;28;19958;-36
2022/10/22 14:57:34;;;;;;;;;;;;;;;24.16;53.94;97406.47;5074075;28;19916;-35
2022/10/22 15:00:00;;;;;;;;;;;;;;;23.83;55.00;97401.44;5072865;28;19962;-36
2022/10/22 15:02:25;;;;;;;;;;;;;;;24.08;54.26;97406.19;5073047;28;19916;-35
2022/10/22 15:04:51;;;;;;;;;;;;;;;24.18;53.89;97406.75;5073994;28;19913;-35
2022/10/22 15:07:16;;;;;;;;;;;;;;;24.22;53.87;97421.13;5074421;28;20361;-35
2022/10/22 15:09:42;;;;;;;;;;;;;;;24.14;54.00;97401.41;5074101;28;19919;-35
2022/10/22 15:12:07;;;;;;;;;;;;;;;24.21;53.62;97400.97;5074314;28;19912;-35
2022/10/22 15:14:33;;;;;;;;;;;;;;;24.23;53.61;97409.56;5074322;28;19908;-35
2022/10/22 15:16:58;;;;;;;;;;;;;;;24.20;53.90;97421.63;5073618;28;19920;-37
2022/10/22 15:19:24;;;;;;;;;;;;;;;24.13;54.14;97418.53;5075454;28;20377;-37
2022/10/22 15:21:49;;;;;;;;;;;;;;;24.19;54.00;97424.88;5076295;28;19932;-36
2022/10/22 15:24:15;;;;;;;;;;;;;;;24.16;54.37;97420.31;5076325;28;19912;-35
2022/10/22 15:26:40;;;;;;;;;;;;;;;24.16;54.30;97420.31;5076005;28;20262;-36
2022/10/22 15:29:07;;;;;;;;;;;;;;;24.10;54.48;97425.09;5076163;28;19908;-35
2022/10/22 15:31:49;;;;;;;;;;;;;;;24.19;54.37;97430.44;5076163;28;20367;-36
2022/10/22 15:34:19;;;;;;;;;;;;;;;24.16;54.69;97432.19;5075999;28;20005;-35
2022/10/22 15:36:44;;;;;;;;;;;;;;;24.03;55.20;97426.28;5075579;28;19966;-35
2022/10/22 15:39:10;;;;;;;;;;;;;;;23.82;55.66;97447.78;5075678;28;19950;-35
2022/10/22 15:41:36;;;;;;;;;;;;;;;23.79;55.77;97437.66;5074723;28;20357;-35
2022/10/22 15:44:02;;;;;;;;;;;;;;;24.07;54.87;97445.47;5074326;28;20375;-35
2022/10/22 15:46:29;;;;;;;;;;;;;;;23.97;55.13;97444.88;5075189;28;19930;-37
2022/10/22 15:48:54;;;;;;;;;;;;;;;24.08;54.79;97430.34;5075544;28;19916;-36
2022/10/22 15:51:20;;;;;;;;;;;;;;;23.95;55.18;97444.63;5075378;28;19915;-35
2022/10/22 15:53:55;;;;;;;;;;;;;;;24.01;55.11;97450.94;5075568;28;19915;-35
2022/10/22 15:56:22;;;;;;;;;;;;;;;23.95;55.53;97444.63;5063526;28;20384;-38
2022/10/22 15:58:51;;;;;;;;;;;;;;;23.94;55.59;97446.63;5071726;28;20384;-36
2022/10/22 16:01:16;;;;;;;;;;;;;;;24.10;55.21;97445.25;5075262;28;20348;-36
2022/10/22 16:03:42;;;;;;;;;;;;;;;23.81;56.27;97439.97;5075234;28;20006;-35
2022/10/22 16:06:08;;;;;;;;;;;;;;;23.94;55.52;97446.63;5075230;28;19916;-35
2022/10/22 16:08:39;;;;;;;;;;;;;;;23.81;56.28;97451.03;5065350;28;19912;-35
2022/10/22 16:11:05;;;;;;;;;;;;;;;23.78;56.01;97446.47;5054600;28;20356;-37
2022/10/22 16:13:30;;;;;;;;;;;;;;;23.90;56.05;97450.84;5066267;28;19905;-35
2022/10/22 16:15:56;;;;;;;;;;;;;;;24.01;55.59;97445.41;5075110;28;19909;-35
2022/10/22 16:18:22;;;;;;;;;;;;;;;23.99;55.84;97450.66;5074926;28;19908;-35
2022/10/22 16:20:48;;;;;;;;;;;;;;;23.87;55.98;97452.59;5074679;28;20375;-38
2022/10/22 16:23:17;;;;;;;;;;;;;;;24.02;55.54;97466.31;5074350;28;19912;-36
2022/10/22 16:25:43;;;;;;;;;;;;;;;23.99;55.54;97456.97;5074543;28;19916;-35
2022/10/22 16:28:09;;;;;;;;;;;;;;;24.04;55.30;97465.84;5073408;28;19908;-35
2022/10/22 16:30:36;;;;;;;;;;;;;;;24.04;55.69;97471.38;5074944;28;19918;-35
2022/10/22 16:33:02;;;;;;;;;;;;;;;23.90;56.19;97459.16;5074576;28;20352;-36
2022/10/22 16:35:29;;;;;;;;;;;;;;;23.96;55.95;97463.53;5074729;28;19916;-37
2022/10/22 16:37:55;;;;;;;;;;;;;;;24.06;55.43;97471.66;5074497;28;20286;-37
2022/10/22 16:40:20;;;;;;;;;;;;;;;23.97;55.88;97465.03;5074852;28;19913;-36
2022/10/22 16:42:46;;;;;;;;;;;;;;;24.02;55.81;97462.78;5074327;28;19994;-36
2022/10/22 16:45:11;;;;;;;;;;;;;;;23.99;55.87;97468.06;5073255;28;19913;-35
2022/10/22 16:47:38;;;;;;;;;;;;;;;23.99;55.70;97476.38;5074452;28;20270;-35
2022/10/22 16:50:04;;;;;;;;;;;;;;;23.96;56.06;97468.31;5073069;28;19915;-35
2022/10/22 16:52:31;;;;;;;;;;;;;;;24.06;55.28;97479.97;5074473;28;19915;-36
2022/10/22 16:54:57;;;;;;;;;;;;;;;24.03;55.75;97480.94;5074226;28;19909;-35
2022/10/22 16:57:22;;;;;;;;;;;;;;;23.95;55.68;97481.41;5074179;28;20257;-35
2022/10/22 16:59:48;;;;;;;;;;;;;;;24.00;55.56;97488.22;5072857;28;19909;-35
2022/10/22 17:02:14;;;;;;;;;;;;;;;23.94;55.83;97477.09;5074449;28;19912;-37
2022/10/22 17:04:39;;;;;;;;;;;;;;;23.93;55.83;97485.91;5074175;28;19912;-36
2022/10/22 17:07:05;;;;;;;;;;;;;;;23.94;55.78;97501.28;5063221;28;19908;-35
2022/10/22 17:09:30;;;;;;;;;;;;;;;24.02;55.54;97507.13;5073101;28;19908;-35
2022/10/22 17:11:56;;;;;;;;;;;;;;;24.02;55.41;97509.91;5073296;28;20372;-35
2022/10/22 17:14:21;;;;;;;;;;;;;;;23.98;55.89;97518.44;5070533;28;19916;-35
2022/10/22 17:16:52;;;;;;;;;;;;;;;23.89;55.87;97513.06;5055338;28;19919;-35
2022/10/22 17:19:19;;;;;;;;;;;;;;;23.84;56.14;97517.31;5071170;28;20356;-35
2022/10/22 17:21:44;;;;;;;;;;;;;;;23.86;56.11;97516.81;5064526;28;19912;-35
2022/10/22 17:24:09;;;;;;;;;;;;;;;23.91;55.78;97511.31;5051349;28;19966;-35
2022/10/22 17:26:36;;;;;;;;;;;;;;;23.91;55.83;97516.84;5050803;28;19915;-36
2022/10/22 17:29:02;;;;;;;;;;;;;;;23.85;56.15;97518.06;5051602;28;20327;-35
2022/10/22 17:31:31;;;;;;;;;;;;;;;23.95;55.69;97519.41;5051383;28;19913;-35
2022/10/22 17:33:58;;;;;;;;;;;;;;;23.86;56.09;97508.50;5058107;28;19916;-35
2022/10/22 17:36:24;;;;;;;;;;;;;;;23.91;55.80;97502.25;5071602;28;20328;-36
2022/10/22 17:38:52;;;;;;;;;;;;;;;23.86;55.96;97514.06;5071522;28;20392;-35
2022/10/22 17:41:22;;;;;;;;;;;;;;;23.94;55.64;97510.34;5071787;28;19919;-35
2022/10/22 17:43:50;;;;;;;;;;;;;;;23.89;55.85;97507.50;5071636;28;19916;-35
2022/10/22 17:46:22;;;;;;;;;;;;;;;23.90;55.67;97498.72;5071605;28;20019;-35
2022/10/22 17:49:04;;;;;;;;;;;;;;;24.03;55.58;97500.34;5071355;28;19920;-35
2022/10/22 17:51:30;;;;;;;;;;;;;;;23.91;55.79;97500.25;5071426;28;19909;-35
2022/10/22 17:54:01;;;;;;;;;;;;;;;23.94;55.77;97513.13;5071438;28;19918;-35
2022/10/22 17:56:28;;;;;;;;;;;;;;;23.90;55.91;97504.25;5071679;28;20371;-35
2022/10/22 17:58:54;;;;;;;;;;;;;;;23.92;55.65;97510.06;5069933;28;19999;-34
2022/10/22 18:01:21;;;;;;;;;;;;;;;23.81;55.97;97523.06;5071708;28;20360;-36
2022/10/22 18:03:47;;;;;;;;;;;;;;;23.86;55.84;97516.81;5071369;28;19920;-36
2022/10/22 18:06:12;;;;;;;;;;;;;;;23.87;55.76;97519.06;5071520;28;20398;-35
2022/10/22 18:08:38;;;;;;;;;;;;;;;23.92;55.61;97521.16;5071525;28;19912;-36
2022/10/22 18:11:11;;;;;;;;;;;;;;;23.95;55.51;97525.72;5058535;28;19912;-35
2022/10/22 18:13:38;;;;;;;;;;;;;;;23.97;55.41;97528.78;5051529;28;20007;-36
2022/10/22 18:16:04;;;;;;;;;;;;;;;23.96;55.49;97527.25;5051237;28;19981;-35
2022/10/22 18:18:33;;;;;;;;;;;;;;;23.94;55.25;97532.50;5051355;28;20369;-35
2022/10/22 18:20:59;;;;;;;;;;;;;;;23.94;55.53;97538.06;5051369;28;19915;-36
2022/10/22 18:23:25;;;;;;;;;;;;;;;23.94;55.37;97542.84;5051306;28;19917;-36
2022/10/22 18:25:51;;;;;;;;;;;;;;;23.92;55.31;97543.31;5051546;28;19908;-35
2022/10/22 18:28:18;;;;;;;;;;;;;;;23.90;55.44;97545.06;5050996;28;19913;-36
2022/10/22 18:30:44;;;;;;;;;;;;;;;23.95;55.19;97542.34;5051434;28;19918;-36
2022/10/22 18:33:11;;;;;;;;;;;;;;;23.95;55.15;97552.66;5053031;28;19909;-36
2022/10/22 18:35:37;;;;;;;;;;;;;;;23.91;55.19;97552.13;5055086;28;20027;-35
2022/10/22 18:38:02;;;;;;;;;;;;;;;23.91;55.39;97555.66;5055014;28;19991;-35
2022/10/22 18:40:30;;;;;;;;;;;;;;;23.81;55.40;97543.22;5054708;28;19913;-35
2022/10/22 18:42:56;;;;;;;;;;;;;;;23.91;55.43;97549.34;5054879;28;19971;-36
2022/10/22 18:45:21;;;;;;;;;;;;;;;23.90;55.44;97554.13;5054772;28;19920;-36
2022/10/22 18:47:47;;;;;;;;;;;;;;;23.86;55.37;97548.03;5054446;28;19944;-36
2022/10/22 18:50:12;;;;;;;;;;;;;;;23.80;55.71;97555.53;5053239;28;20023;-36
2022/10/22 18:52:38;;;;;;;;;;;;;;;23.86;55.39;97556.34;5054705;28;19908;-35
2022/10/22 18:55:03;;;;;;;;;;;;;;;23.86;55.57;97552.84;5054724;28;19958;-37
2022/10/22 18:57:30;;;;;;;;;;;;;;;23.96;55.10;97563.28;5054750;28;19991;-36
2022/10/22 18:59:56;;;;;;;;;;;;;;;23.86;55.38;97559.13;5053044;28;20368;-36
2022/10/22 19:02:21;;;;;;;;;;;;;;;23.91;54.95;97569.50;5054445;28;19912;-35
2022/10/22 19:04:47;;;;;;;;;;;;;;;23.90;54.85;97562.44;5054485;28;19969;-35
2022/10/22 19:07:13;;;;;;;;;;;;;;;23.86;55.23;97563.91;5054473;28;19913;-35
2022/10/22 19:09:38;;;;;;;;;;;;;;;23.88;55.29;97564.16;5054409;28;19965;-35
2022/10/22 19:12:05;;;;;;;;;;;;;;;23.83;55.24;97570.44;5074019;28;19912;-35
2022/10/22 19:14:30;;;;;;;;;;;;;;;23.79;55.60;97567.09;5074257;28;19998;-35
2022/10/22 19:16:56;;;;;;;;;;;;;;;23.84;55.23;97567.16;5074435;28;20404;-35
2022/10/22 19:19:22;;;;;;;;;;;;;;;23.91;55.13;97563.97;5074415;28;19919;-34
2022/10/22 19:21:48;;;;;;;;;;;;;;;23.83;55.31;97565.66;5072877;28;20045;-34
2022/10/22 19:24:14;;;;;;;;;;;;;;;23.84;55.31;97567.16;5074116;28;19924;-35
2022/10/22 19:26:40;;;;;;;;;;;;;;;23.86;55.22;97575.00;5073810;28;19913;-35
2022/10/22 19:29:05;;;;;;;;;;;;;;;23.87;55.02;97573.72;5074080;28;19908;-35
2022/10/22 19:31:31;;;;;;;;;;;;;;;23.87;54.99;97565.41;5073900;28;19912;-36
2022/10/22 19:33:57;;;;;;;;;;;;;;;23.79;55.29;97570.63;5074074;28;20364;-37
2022/10/22 19:36:24;;;;;;;;;;;;;;;23.81;55.27;97570.91;5073797;28;19912;-35
2022/10/22 19:38:50;;;;;;;;;;;;;;;23.76;55.64;97574.38;5072388;28;19923;-35
2022/10/22 19:41:18;;;;;;;;;;;;;;;23.83;55.25;97571.19;5073824;28;19912;-35
2022/10/22 19:43:44;;;;;;;;;;;;;;;23.84;54.90;97583.03;5073515;28;19908;-35
2022/10/22 19:46:10;;;;;;;;;;;;;;;23.75;55.31;97575.63;5073733;28;19913;-35
2022/10/22 19:48:36;;;;;;;;;;;;;;;23.78;55.28;97577.41;5073604;28;20308;-35
2022/10/22 19:51:03;;;;;;;;;;;;;;;23.81;55.24;97584.75;5073335;28;19912;-34
2022/10/22 19:53:29;;;;;;;;;;;;;;;23.81;55.34;97584.75;5072867;28;20014;-35
2022/10/22 19:55:56;;;;;;;;;;;;;;;23.75;55.55;97581.16;5073465;28;20484;-35